sensor_id;sensor_type;location;lat;lon;timestamp;temperature;humidity
9820;DHT22;4949;48.482;9.206;2024-03-17T00:04:40;9.20;99.90
9820;DHT22;4949;48.482;9.206;2024-03-17T00:09:41;9.20;99.90
9820;DHT22;4949;48.482;9.206;2024-03-17T00:14:42;9.10;99.90
9820;DHT22;4949;48.482;9.206;2024-03-17T00:19:43;9.40;99.90
9820;DHT22;4949;48.482;9.206;2024-03-17T00:24:44;9.00;99.90
9820;DHT22;4949;48.482;9.206;2024-03-17T00:29:46;8.90;99.90
9820;DHT22;4949;48.482;9.206;2024-03-17T00:34:46;8.90;99.90
9820;DHT22;4949;48.482;9.206;2024-03-17T00:39:47;9.20;99.90
9820;DHT22;4949;48.482;9.206;2024-03-17T00:44:48;8.80;99.90
9820;DHT22;4949;48.482;9.206;2024-03-17T00:49:51;8.70;99.90
9820;DHT22;4949;48.482;9.206;2024-03-17T00:54:52;8.80;99.90
9820;DHT22;4949;48.482;9.206;2024-03-17T00:59:52;8.60;99.90
9820;DHT22;4949;48.482;9.206;2024-03-17T01:04:53;8.70;99.90
9820;DHT22;4949;48.482;9.206;2024-03-17T01:09:54;8.60;99.90
9820;DHT22;4949;48.482;9.206;2024-03-17T01:14:55;8.60;99.90
9820;DHT22;4949;48.482;9.206;2024-03-17T01:19:56;8.80;99.90
9820;DHT22;4949;48.482;9.206;2024-03-17T01:24:56;8.60;99.90
9820;DHT22;4949;48.482;9.206;2024-03-17T01:29:59;8.60;99.90
9820;DHT22;4949;48.482;9.206;2024-03-17T01:35:00;9.00;99.90
9820;DHT22;4949;48.482;9.206;2024-03-17T01:40:01;9.00;99.90
9820;DHT22;4949;48.482;9.206;2024-03-17T01:45:31;8.70;99.90
9820;DHT22;4949;48.482;9.206;2024-03-17T01:50:36;8.70;99.90
9820;DHT22;4949;48.482;9.206;2024-03-17T01:55:41;8.70;99.90
9820;DHT22;4949;48.482;9.206;2024-03-17T02:00:43;9.10;99.90
9820;DHT22;4949;48.482;9.206;2024-03-17T02:05:45;8.70;99.90
9820;DHT22;4949;48.482;9.206;2024-03-17T02:10:45;8.70;99.90
9820;DHT22;4949;48.482;9.206;2024-03-17T02:15:48;8.70;99.90
9820;DHT22;4949;48.482;9.206;2024-03-17T02:20:49;8.70;99.90
9820;DHT22;4949;48.482;9.206;2024-03-17T02:25:59;8.60;99.90
9820;DHT22;4949;48.482;9.206;2024-03-17T02:30:59;8.60;99.90
9820;DHT22;4949;48.482;9.206;2024-03-17T02:36:00;8.60;99.90
9820;DHT22;4949;48.482;9.206;2024-03-17T02:41:01;8.60;99.90
9820;DHT22;4949;48.482;9.206;2024-03-17T02:46:02;8.80;99.90
9820;DHT22;4949;48.482;9.206;2024-03-17T02:51:08;8.60;99.90
9820;DHT22;4949;48.482;9.206;2024-03-17T02:56:13;8.70;99.90
9820;DHT22;4949;48.482;9.206;2024-03-17T03:01:17;8.50;99.90
9820;DHT22;4949;48.482;9.206;2024-03-17T03:06:19;8.50;99.90
9820;DHT22;4949;48.482;9.206;2024-03-17T03:11:20;8.40;99.90
9820;DHT22;4949;48.482;9.206;2024-03-17T03:16:21;8.40;99.90
9820;DHT22;4949;48.482;9.206;2024-03-17T03:21:21;8.40;99.90
9820;DHT22;4949;48.482;9.206;2024-03-17T03:26:22;8.40;99.90
9820;DHT22;4949;48.482;9.206;2024-03-17T03:31:23;8.80;99.90
9820;DHT22;4949;48.482;9.206;2024-03-17T03:36:27;8.40;99.90
9820;DHT22;4949;48.482;9.206;2024-03-17T03:41:28;8.50;99.90
9820;DHT22;4949;48.482;9.206;2024-03-17T03:46:31;8.40;99.90
9820;DHT22;4949;48.482;9.206;2024-03-17T03:51:32;8.50;99.90
9820;DHT22;4949;48.482;9.206;2024-03-17T03:56:33;8.50;99.90
9820;DHT22;4949;48.482;9.206;2024-03-17T04:01:34;8.50;99.90
9820;DHT22;4949;48.482;9.206;2024-03-17T04:06:37;8.50;99.90
9820;DHT22;4949;48.482;9.206;2024-03-17T04:11:38;8.90;99.90
9820;DHT22;4949;48.482;9.206;2024-03-17T04:16:39;8.50;99.90
9820;DHT22;4949;48.482;9.206;2024-03-17T04:21:40;8.50;99.90
9820;DHT22;4949;48.482;9.206;2024-03-17T04:26:40;8.50;99.90
9820;DHT22;4949;48.482;9.206;2024-03-17T04:31:41;8.60;99.90
9820;DHT22;4949;48.482;9.206;2024-03-17T04:36:45;8.50;99.90
9820;DHT22;4949;48.482;9.206;2024-03-17T04:41:47;8.50;99.90
9820;DHT22;4949;48.482;9.206;2024-03-17T04:46:48;8.90;99.90
9820;DHT22;4949;48.482;9.206;2024-03-17T04:51:49;8.80;99.90
9820;DHT22;4949;48.482;9.206;2024-03-17T04:56:50;8.50;99.90
9820;DHT22;4949;48.482;9.206;2024-03-17T05:01:51;8.50;99.90
9820;DHT22;4949;48.482;9.206;2024-03-17T05:06:52;8.60;99.90
9820;DHT22;4949;48.482;9.206;2024-03-17T05:11:53;8.50;99.90
9820;DHT22;4949;48.482;9.206;2024-03-17T05:16:53;8.50;99.90
9820;DHT22;4949;48.482;9.206;2024-03-17T05:21:57;8.60;99.90
9820;DHT22;4949;48.482;9.206;2024-03-17T05:26:58;8.60;99.90
9820;DHT22;4949;48.482;9.206;2024-03-17T05:31:58;8.60;99.90
9820;DHT22;4949;48.482;9.206;2024-03-17T05:36:59;8.80;99.90
9820;DHT22;4949;48.482;9.206;2024-03-17T05:42:02;8.60;99.90
9820;DHT22;4949;48.482;9.206;2024-03-17T05:47:04;8.50;99.90
9820;DHT22;4949;48.482;9.206;2024-03-17T05:52:08;8.60;99.90
9820;DHT22;4949;48.482;9.206;2024-03-17T05:57:09;8.60;99.90
9820;DHT22;4949;48.482;9.206;2024-03-17T06:02:12;8.60;99.90
9820;DHT22;4949;48.482;9.206;2024-03-17T06:07:15;8.60;99.90
9820;DHT22;4949;48.482;9.206;2024-03-17T06:12:15;8.70;99.90
9820;DHT22;4949;48.482;9.206;2024-03-17T06:17:16;8.70;99.90
9820;DHT22;4949;48.482;9.206;2024-03-17T06:22:17;8.70;99.90
9820;DHT22;4949;48.482;9.206;2024-03-17T06:27:18;9.20;99.90
9820;DHT22;4949;48.482;9.206;2024-03-17T06:32:19;8.80;99.90
9820;DHT22;4949;48.482;9.206;2024-03-17T06:37:20;9.10;99.90
9820;DHT22;4949;48.482;9.206;2024-03-17T06:42:22;8.90;99.90
9820;DHT22;4949;48.482;9.206;2024-03-17T06:47:26;8.90;99.90
9820;DHT22;4949;48.482;9.206;2024-03-17T06:52:27;9.00;99.90
9820;DHT22;4949;48.482;9.206;2024-03-17T06:57:27;8.90;99.90
9820;DHT22;4949;48.482;9.206;2024-03-17T07:02:28;9.30;99.90
9820;DHT22;4949;48.482;9.206;2024-03-17T07:07:29;9.10;99.90
9820;DHT22;4949;48.482;9.206;2024-03-17T07:12:30;9.10;99.90
9820;DHT22;4949;48.482;9.206;2024-03-17T07:17:31;9.60;99.90
9820;DHT22;4949;48.482;9.206;2024-03-17T07:22:34;9.30;99.90
9820;DHT22;4949;48.482;9.206;2024-03-17T07:27:35;9.40;99.90
9820;DHT22;4949;48.482;9.206;2024-03-17T07:32:39;9.30;99.90
9820;DHT22;4949;48.482;9.206;2024-03-17T07:37:41;9.50;99.90
9820;DHT22;4949;48.482;9.206;2024-03-17T07:42:42;9.50;99.90
9820;DHT22;4949;48.482;9.206;2024-03-17T07:47:43;9.60;99.90
9820;DHT22;4949;48.482;9.206;2024-03-17T07:52:46;9.70;99.90
9820;DHT22;4949;48.482;9.206;2024-03-17T07:57:49;9.80;99.90
9820;DHT22;4949;48.482;9.206;2024-03-17T08:02:51;10.00;99.90
9820;DHT22;4949;48.482;9.206;2024-03-17T08:07:52;9.90;99.90
9820;DHT22;4949;48.482;9.206;2024-03-17T08:12:53;10.10;99.90
9820;DHT22;4949;48.482;9.206;2024-03-17T08:17:54;10.10;99.90
9820;DHT22;4949;48.482;9.206;2024-03-17T08:22:55;10.30;99.90
9820;DHT22;4949;48.482;9.206;2024-03-17T08:27:55;10.40;99.90
9820;DHT22;4949;48.482;9.206;2024-03-17T08:32:57;10.50;99.90
9820;DHT22;4949;48.482;9.206;2024-03-17T08:37:57;10.60;99.90
9820;DHT22;4949;48.482;9.206;2024-03-17T08:43:00;10.60;99.90
9820;DHT22;4949;48.482;9.206;2024-03-17T08:48:01;10.80;99.90
9820;DHT22;4949;48.482;9.206;2024-03-17T08:53:02;11.10;99.90
9820;DHT22;4949;48.482;9.206;2024-03-17T08:58:03;10.90;99.90
9820;DHT22;4949;48.482;9.206;2024-03-17T09:03:04;11.00;99.90
9820;DHT22;4949;48.482;9.206;2024-03-17T09:08:06;11.10;99.90
9820;DHT22;4949;48.482;9.206;2024-03-17T09:13:14;11.20;99.90
9820;DHT22;4949;48.482;9.206;2024-03-17T09:18:21;11.70;99.90
9820;DHT22;4949;48.482;9.206;2024-03-17T09:23:22;11.50;99.90
9820;DHT22;4949;48.482;9.206;2024-03-17T09:28:24;11.70;99.90
9820;DHT22;4949;48.482;9.206;2024-03-17T09:33:27;11.80;99.90
9820;DHT22;4949;48.482;9.206;2024-03-17T09:38:33;11.80;99.90
9820;DHT22;4949;48.482;9.206;2024-03-17T09:43:39;12.30;99.90
9820;DHT22;4949;48.482;9.206;2024-03-17T09:48:42;12.00;99.90
9820;DHT22;4949;48.482;9.206;2024-03-17T09:53:44;12.10;99.90
9820;DHT22;4949;48.482;9.206;2024-03-17T09:58:49;12.10;99.50
9820;DHT22;4949;48.482;9.206;2024-03-17T10:03:52;12.20;99.30
9820;DHT22;4949;48.482;9.206;2024-03-17T10:08:57;12.30;98.80
9820;DHT22;4949;48.482;9.206;2024-03-17T10:14:06;12.40;98.50
9820;DHT22;4949;48.482;9.206;2024-03-17T10:19:16;12.50;97.90
9820;DHT22;4949;48.482;9.206;2024-03-17T10:24:24;12.60;97.50
9820;DHT22;4949;48.482;9.206;2024-03-17T10:29:26;12.80;97.40
9820;DHT22;4949;48.482;9.206;2024-03-17T10:34:31;12.90;97.20
9820;DHT22;4949;48.482;9.206;2024-03-17T10:39:39;13.20;97.00
9820;DHT22;4949;48.482;9.206;2024-03-17T10:44:43;13.30;96.30
9820;DHT22;4949;48.482;9.206;2024-03-17T10:49:46;13.40;95.20
9820;DHT22;4949;48.482;9.206;2024-03-17T10:54:49;13.60;95.70
9820;DHT22;4949;48.482;9.206;2024-03-17T10:59:53;13.70;95.20
9820;DHT22;4949;48.482;9.206;2024-03-17T11:04:55;13.80;95.20
9820;DHT22;4949;48.482;9.206;2024-03-17T11:09:58;14.20;94.80
9820;DHT22;4949;48.482;9.206;2024-03-17T11:20:40;14.20;92.70
9820;DHT22;4949;48.482;9.206;2024-03-17T11:25:41;14.30;93.40
9820;DHT22;4949;48.482;9.206;2024-03-17T11:30:48;14.30;93.50
9820;DHT22;4949;48.482;9.206;2024-03-17T11:41:37;14.50;92.80
9820;DHT22;4949;48.482;9.206;2024-03-17T11:46:39;14.80;92.60
9820;DHT22;4949;48.482;9.206;2024-03-17T11:51:41;15.10;92.00
9820;DHT22;4949;48.482;9.206;2024-03-17T11:56:43;15.30;91.60
9820;DHT22;4949;48.482;9.206;2024-03-17T12:01:45;15.60;90.70
9820;DHT22;4949;48.482;9.206;2024-03-17T12:06:49;15.50;91.00
9820;DHT22;4949;48.482;9.206;2024-03-17T12:17:07;15.20;90.50
9820;DHT22;4949;48.482;9.206;2024-03-17T12:22:08;15.10;90.60
9820;DHT22;4949;48.482;9.206;2024-03-17T12:27:18;14.90;90.40
9820;DHT22;4949;48.482;9.206;2024-03-17T12:32:24;14.90;91.50
9820;DHT22;4949;48.482;9.206;2024-03-17T12:37:28;15.40;91.70
9820;DHT22;4949;48.482;9.206;2024-03-17T12:42:36;15.30;90.30
9820;DHT22;4949;48.482;9.206;2024-03-17T12:47:38;15.30;89.90
9820;DHT22;4949;48.482;9.206;2024-03-17T12:52:43;15.10;90.00
9820;DHT22;4949;48.482;9.206;2024-03-17T13:03:30;15.30;89.60
9820;DHT22;4949;48.482;9.206;2024-03-17T13:08:35;15.30;89.30
9820;DHT22;4949;48.482;9.206;2024-03-17T13:13:39;15.30;89.00
9820;DHT22;4949;48.482;9.206;2024-03-17T13:18:42;15.40;88.80
9820;DHT22;4949;48.482;9.206;2024-03-17T13:23:43;15.70;88.20
9820;DHT22;4949;48.482;9.206;2024-03-17T13:28:45;15.80;87.90
9820;DHT22;4949;48.482;9.206;2024-03-17T13:33:46;16.00;86.70
9820;DHT22;4949;48.482;9.206;2024-03-17T13:38:52;16.30;85.90
9820;DHT22;4949;48.482;9.206;2024-03-17T13:43:53;16.10;86.20
9820;DHT22;4949;48.482;9.206;2024-03-17T13:49:09;16.10;86.20
9820;DHT22;4949;48.482;9.206;2024-03-17T13:54:11;16.30;86.10
9820;DHT22;4949;48.482;9.206;2024-03-17T13:59:12;16.40;84.90
9820;DHT22;4949;48.482;9.206;2024-03-17T14:04:13;16.50;85.00
9820;DHT22;4949;48.482;9.206;2024-03-17T14:09:19;16.50;83.90
9820;DHT22;4949;48.482;9.206;2024-03-17T14:14:23;16.50;83.30
9820;DHT22;4949;48.482;9.206;2024-03-17T14:19:24;16.40;83.90
9820;DHT22;4949;48.482;9.206;2024-03-17T14:24:24;16.50;83.90
9820;DHT22;4949;48.482;9.206;2024-03-17T14:29:28;16.50;81.20
9820;DHT22;4949;48.482;9.206;2024-03-17T14:34:28;16.90;80.60
9820;DHT22;4949;48.482;9.206;2024-03-17T14:39:36;17.30;79.60
9820;DHT22;4949;48.482;9.206;2024-03-17T14:44:39;17.50;78.60
9820;DHT22;4949;48.482;9.206;2024-03-17T14:49:40;17.70;78.10
9820;DHT22;4949;48.482;9.206;2024-03-17T14:54:45;17.60;77.70
9820;DHT22;4949;48.482;9.206;2024-03-17T14:59:46;17.30;77.90
9820;DHT22;4949;48.482;9.206;2024-03-17T15:04:47;17.00;78.50
9820;DHT22;4949;48.482;9.206;2024-03-17T15:09:48;16.80;79.40
9820;DHT22;4949;48.482;9.206;2024-03-17T15:14:51;16.70;79.40
9820;DHT22;4949;48.482;9.206;2024-03-17T15:19:52;16.60;79.00
9820;DHT22;4949;48.482;9.206;2024-03-17T15:24:58;16.50;79.60
9820;DHT22;4949;48.482;9.206;2024-03-17T15:29:59;16.40;80.70
9820;DHT22;4949;48.482;9.206;2024-03-17T15:34:59;16.30;81.10
9820;DHT22;4949;48.482;9.206;2024-03-17T15:40:01;16.10;81.90
9820;DHT22;4949;48.482;9.206;2024-03-17T15:45:01;15.80;83.30
9820;DHT22;4949;48.482;9.206;2024-03-17T15:50:03;15.70;84.20
9820;DHT22;4949;48.482;9.206;2024-03-17T15:55:04;15.70;85.20
9820;DHT22;4949;48.482;9.206;2024-03-17T16:00:09;15.70;85.20
9820;DHT22;4949;48.482;9.206;2024-03-17T16:05:13;15.60;85.80
9820;DHT22;4949;48.482;9.206;2024-03-17T16:10:20;15.60;86.80
9820;DHT22;4949;48.482;9.206;2024-03-17T16:15:24;15.40;85.20
9820;DHT22;4949;48.482;9.206;2024-03-17T16:20:56;15.20;84.80
9820;DHT22;4949;48.482;9.206;2024-03-17T16:25:58;15.20;85.00
9820;DHT22;4949;48.482;9.206;2024-03-17T16:30:58;15.20;84.90
9820;DHT22;4949;48.482;9.206;2024-03-17T16:36:00;15.20;84.70
9820;DHT22;4949;48.482;9.206;2024-03-17T16:41:02;15.20;84.90
9820;DHT22;4949;48.482;9.206;2024-03-17T16:51:48;15.30;84.70
9820;DHT22;4949;48.482;9.206;2024-03-17T16:56:50;15.30;84.90
9820;DHT22;4949;48.482;9.206;2024-03-17T17:01:50;15.20;84.90
9820;DHT22;4949;48.482;9.206;2024-03-17T17:06:52;15.10;85.10
9820;DHT22;4949;48.482;9.206;2024-03-17T17:11:56;15.20;85.30
9820;DHT22;4949;48.482;9.206;2024-03-17T17:16:57;15.00;85.40
9820;DHT22;4949;48.482;9.206;2024-03-17T17:22:00;15.00;86.10
9820;DHT22;4949;48.482;9.206;2024-03-17T17:27:05;14.90;86.40
9820;DHT22;4949;48.482;9.206;2024-03-17T17:32:09;14.90;87.10
9820;DHT22;4949;48.482;9.206;2024-03-17T17:37:10;14.80;87.60
9820;DHT22;4949;48.482;9.206;2024-03-17T17:42:12;14.80;88.50
9820;DHT22;4949;48.482;9.206;2024-03-17T17:47:15;14.80;89.00
9820;DHT22;4949;48.482;9.206;2024-03-17T17:52:16;14.70;89.70
9820;DHT22;4949;48.482;9.206;2024-03-17T17:57:19;14.60;90.00
9820;DHT22;4949;48.482;9.206;2024-03-17T18:02:20;14.60;90.30
9820;DHT22;4949;48.482;9.206;2024-03-17T18:07:23;14.60;90.50
9820;DHT22;4949;48.482;9.206;2024-03-17T18:12:24;14.60;91.00
9820;DHT22;4949;48.482;9.206;2024-03-17T18:17:24;14.60;90.80
9820;DHT22;4949;48.482;9.206;2024-03-17T18:22:25;14.60;91.00
9820;DHT22;4949;48.482;9.206;2024-03-17T18:27:26;14.50;91.00
9820;DHT22;4949;48.482;9.206;2024-03-17T18:32:27;14.30;91.20
9820;DHT22;4949;48.482;9.206;2024-03-17T18:37:30;14.20;91.50
9820;DHT22;4949;48.482;9.206;2024-03-17T18:42:32;14.10;92.00
9820;DHT22;4949;48.482;9.206;2024-03-17T18:47:36;14.00;92.40
9820;DHT22;4949;48.482;9.206;2024-03-17T18:52:41;13.90;92.80
9820;DHT22;4949;48.482;9.206;2024-03-17T18:57:45;14.00;93.40
9820;DHT22;4949;48.482;9.206;2024-03-17T19:02:51;13.80;93.60
9820;DHT22;4949;48.482;9.206;2024-03-17T19:07:54;13.80;94.10
9820;DHT22;4949;48.482;9.206;2024-03-17T19:12:55;13.80;94.30
9820;DHT22;4949;48.482;9.206;2024-03-17T19:17:56;13.70;94.60
9820;DHT22;4949;48.482;9.206;2024-03-17T19:22:57;13.80;94.70
9820;DHT22;4949;48.482;9.206;2024-03-17T19:27:58;13.70;95.10
9820;DHT22;4949;48.482;9.206;2024-03-17T19:33:02;13.60;95.60
9820;DHT22;4949;48.482;9.206;2024-03-17T19:38:04;13.60;95.70
9820;DHT22;4949;48.482;9.206;2024-03-17T19:43:07;13.50;95.80
9820;DHT22;4949;48.482;9.206;2024-03-17T19:48:09;13.50;95.90
9820;DHT22;4949;48.482;9.206;2024-03-17T19:53:10;13.50;95.70
9820;DHT22;4949;48.482;9.206;2024-03-17T19:58:11;13.40;95.80
9820;DHT22;4949;48.482;9.206;2024-03-17T20:03:12;13.40;95.60
9820;DHT22;4949;48.482;9.206;2024-03-17T20:08:13;13.30;96.00
9820;DHT22;4949;48.482;9.206;2024-03-17T20:13:13;13.30;96.50
9820;DHT22;4949;48.482;9.206;2024-03-17T20:18:14;13.20;96.30
9820;DHT22;4949;48.482;9.206;2024-03-17T20:23:15;13.20;96.30
9820;DHT22;4949;48.482;9.206;2024-03-17T20:28:16;13.20;96.40
9820;DHT22;4949;48.482;9.206;2024-03-17T20:33:19;13.10;96.70
9820;DHT22;4949;48.482;9.206;2024-03-17T20:38:20;13.00;96.60
9820;DHT22;4949;48.482;9.206;2024-03-17T20:43:23;13.00;96.50
9820;DHT22;4949;48.482;9.206;2024-03-17T20:48:24;13.00;96.90
9820;DHT22;4949;48.482;9.206;2024-03-17T20:53:27;12.90;96.90
9820;DHT22;4949;48.482;9.206;2024-03-17T20:58:29;12.90;96.70
9820;DHT22;4949;48.482;9.206;2024-03-17T21:03:30;12.80;96.90
9820;DHT22;4949;48.482;9.206;2024-03-17T21:08:30;12.80;97.10
9820;DHT22;4949;48.482;9.206;2024-03-17T21:13:31;12.70;97.10
9820;DHT22;4949;48.482;9.206;2024-03-17T21:18:32;12.70;97.20
9820;DHT22;4949;48.482;9.206;2024-03-17T21:23:32;12.60;97.30
9820;DHT22;4949;48.482;9.206;2024-03-17T21:28:35;12.60;97.20
9820;DHT22;4949;48.482;9.206;2024-03-17T21:33:37;12.70;97.50
9820;DHT22;4949;48.482;9.206;2024-03-17T21:38:38;12.50;98.30
9820;DHT22;4949;48.482;9.206;2024-03-17T21:43:38;12.40;98.90
9820;DHT22;4949;48.482;9.206;2024-03-17T21:48:40;12.40;99.30
9820;DHT22;4949;48.482;9.206;2024-03-17T21:53:43;12.40;99.60
9820;DHT22;4949;48.482;9.206;2024-03-17T21:58:44;12.30;99.80
9820;DHT22;4949;48.482;9.206;2024-03-17T22:03:46;12.30;99.90
9820;DHT22;4949;48.482;9.206;2024-03-17T22:08:48;12.20;99.90
9820;DHT22;4949;48.482;9.206;2024-03-17T22:13:51;12.10;99.90
9820;DHT22;4949;48.482;9.206;2024-03-17T22:18:52;12.50;99.90
9820;DHT22;4949;48.482;9.206;2024-03-17T22:23:53;12.10;99.90
9820;DHT22;4949;48.482;9.206;2024-03-17T22:28:56;12.10;99.90
9820;DHT22;4949;48.482;9.206;2024-03-17T22:33:57;12.10;99.90
9820;DHT22;4949;48.482;9.206;2024-03-17T22:38:58;12.20;99.90
9820;DHT22;4949;48.482;9.206;2024-03-17T22:44:02;12.20;99.90
9820;DHT22;4949;48.482;9.206;2024-03-17T22:49:04;12.20;99.90
9820;DHT22;4949;48.482;9.206;2024-03-17T22:54:08;12.10;99.90
9820;DHT22;4949;48.482;9.206;2024-03-17T22:59:09;12.00;99.90
9820;DHT22;4949;48.482;9.206;2024-03-17T23:04:10;11.90;99.90
9820;DHT22;4949;48.482;9.206;2024-03-17T23:09:17;11.90;99.90
9820;DHT22;4949;48.482;9.206;2024-03-17T23:14:20;11.90;99.90
9820;DHT22;4949;48.482;9.206;2024-03-17T23:19:20;11.90;99.90
9820;DHT22;4949;48.482;9.206;2024-03-17T23:24:21;11.90;99.90
9820;DHT22;4949;48.482;9.206;2024-03-17T23:29:24;11.80;99.90
9820;DHT22;4949;48.482;9.206;2024-03-17T23:34:27;11.80;99.90
9820;DHT22;4949;48.482;9.206;2024-03-17T23:39:28;11.70;99.90
9820;DHT22;4949;48.482;9.206;2024-03-17T23:44:30;11.70;99.90
9820;DHT22;4949;48.482;9.206;2024-03-17T23:49:32;11.70;99.90
9820;DHT22;4949;48.482;9.206;2024-03-17T23:54:32;11.70;99.90
9820;DHT22;4949;48.482;9.206;2024-03-17T23:59:34;11.70;99.90
